Nsu Inspire — 3FID5 — position and weather

sailwx.info

Track history (hours):
 
Tides and Currents Weather Stations Pressure Air Temp Water Temp Dewpoint Dewpoint Depression Visibility Wind Speed Wind Dir Waves Ship Positions

Nsu Inspire

Last reported at 2014-Jul-03 15:11 UTC. Time now 2014-Jul-31 23:38 UTC.
Position N 36°21' E 141°24'.
Warning: this ship's position is 28 days out of date.

Length 330 m; draft 14.9 m.

Type: Cargo ship. MMSI: 372998000.

Date/timePositionNaut miles runAvg speedWind from/ knotsBaromVisibWave heightAir tempDewpointWater temp
2014-Jul-03 15:11N 36°21' E 141°24'1015.3
2014-Jul-03 14:33N 36°12' E 141°21'1615.1
2014-Jul-03 13:29N 35°56' E 141°16'1714.9
2014-Jul-03 12:20N 35°40' E 141°11'2915.1
2014-Jul-03 10:26N 35°16' E 140°51'1517.6
2014-Jul-03 09:33N 35°07' E 140°36'1616.2
2014-Jul-03 08:33N 34°57' E 140°20'1515.0
2014-Jul-03 07:33N 34°52' E 140°03'1313.4
2014-Jul-03 06:33N 34°51' E 139°46'1212.6
2014-Jul-03 05:33N 35°03' E 139°41'1211.7
2014-Jul-03 04:33N 35°14' E 139°46'1110.6
2014-Jul-03 03:33N 35°24' E 139°43'8 7.7
2014-Jul-03 02:33N 35°22' E 139°52'0 0.2
2014-Jul-03 01:31N 35°22' E 139°52'0 0.0
2014-Jul-03 00:31N 35°22' E 139°52'0 0.0
2014-Jul-02 23:31N 35°22' E 139°52'0 0.0
2014-Jul-02 22:31N 35°22' E 139°52'0 0.0
2014-Jul-02 21:28N 35°22' E 139°52'0 0.0
2014-Jul-02 20:31N 35°22' E 139°52'0 0.0
2014-Jul-02 19:31N 35°22' E 139°52'0 0.0
2014-Jul-02 18:31N 35°22' E 139°52'0 0.0
2014-Jul-02 17:31N 35°22' E 139°52'0 0.0
2014-Jul-02 16:31N 35°22' E 139°52'0 0.0
2014-Jul-02 15:31N 35°22' E 139°52'0 0.0
2014-Jul-02 14:31N 35°22' E 139°52'0 0.0
2014-Jul-02 13:31N 35°22' E 139°52'0 0.0
2014-Jul-02 12:31N 35°22' E 139°52'0 0.0
2014-Jul-02 11:31N 35°22' E 139°52'0 0.0
2014-Jul-02 10:31N 35°22' E 139°52'0 0.0
2014-Jul-02 09:31N 35°22' E 139°52'0 0.0
2014-Jul-02 08:31N 35°22' E 139°52'0 0.0
2014-Jul-02 07:31N 35°22' E 139°52'0 0.0
2014-Jul-02 06:31N 35°22' E 139°52'0 0.0
2014-Jul-02 05:31N 35°22' E 139°52'0 0.0
2014-Jul-02 04:31N 35°22' E 139°52'0 0.0
2014-Jul-02 03:31N 35°22' E 139°52'0 0.0
2014-Jul-02 02:31N 35°22' E 139°52'0 0.0
2014-Jul-02 01:28N 35°22' E 139°52'0 0.0
2014-Jul-02 00:31N 35°22' E 139°52'0 0.0
2014-Jul-01 23:31N 35°22' E 139°52'0 0.0
2014-Jul-01 22:31N 35°22' E 139°52'0 0.0
2014-Jul-01 21:31N 35°22' E 139°52'0 0.0
2014-Jul-01 20:31N 35°22' E 139°52'0 0.0
2014-Jul-01 19:31N 35°22' E 139°52'0 0.0
2014-Jul-01 18:31N 35°22' E 139°52'0 0.0
2014-Jul-01 17:31N 35°22' E 139°52'0 0.0
2014-Jul-01 16:31N 35°22' E 139°52'0 0.0
2014-Jul-01 15:31N 35°22' E 139°52'0 0.0
2014-Jul-01 14:31N 35°22' E 139°52'0 0.0
2014-Jul-01 13:31N 35°22' E 139°52'0 0.0
2014-Jul-01 12:31N 35°22' E 139°52'0 0.0
2014-Jul-01 11:28N 35°22' E 139°52'0 0.0
2014-Jul-01 10:31N 35°22' E 139°52'0 0.0
2014-Jul-01 09:28N 35°22' E 139°52'0 0.1
2014-Jul-01 08:34N 35°22' E 139°52'4 3.9
2014-Jul-01 07:34N 35°24' E 139°48'1 1.3
2014-Jul-01 06:33N 35°26' E 139°49'0 0.2
2014-Jul-01 05:33N 35°25' E 139°49'0 0.1
2014-Jul-01 04:24N 35°25' E 139°49'1 1.4
2014-Jul-01 03:33N 35°25' E 139°47'7 7.3
2014-Jul-01 02:33N 35°18' E 139°45'10 9.6
2014-Jul-01 01:33N 35°09' E 139°46'1111.2
2014-Jul-01 00:33N 34°58' E 139°42'9 8.8
2014-Jun-30 23:33N 34°49' E 139°39'  
Track history (hours):
 
Tides and Currents Weather Stations Pressure Air Temp Water Temp Dewpoint Dewpoint Depression Visibility Wind Speed Wind Dir Waves Ship Positions

Nsu Inspire

Last reported at 2014-Jul-03 15:11 UTC. Time now 2014-Jul-31 23:38 UTC.
Position N 36°21' E 141°24'.
Warning: this ship's position is 28 days out of date.

Length 330 m; draft 14.9 m.

Type: Cargo ship. MMSI: 372998000.

Date/timePositionNaut miles runAvg speedWind from/ knotsBaromVisibWave heightAir tempDewpointWater temp
2014-Jul-03 15:11N 36°21' E 141°24'1015.3
2014-Jul-03 14:33N 36°12' E 141°21'1615.1
2014-Jul-03 13:29N 35°56' E 141°16'1714.9
2014-Jul-03 12:20N 35°40' E 141°11'2915.1
2014-Jul-03 10:26N 35°16' E 140°51'1517.6
2014-Jul-03 09:33N 35°07' E 140°36'1616.2
2014-Jul-03 08:33N 34°57' E 140°20'1515.0
2014-Jul-03 07:33N 34°52' E 140°03'1313.4
2014-Jul-03 06:33N 34°51' E 139°46'1212.6
2014-Jul-03 05:33N 35°03' E 139°41'1211.7
2014-Jul-03 04:33N 35°14' E 139°46'1110.6
2014-Jul-03 03:33N 35°24' E 139°43'8 7.7
2014-Jul-03 02:33N 35°22' E 139°52'0 0.2
2014-Jul-03 01:31N 35°22' E 139°52'0 0.0
2014-Jul-03 00:31N 35°22' E 139°52'0 0.0
2014-Jul-02 23:31N 35°22' E 139°52'0 0.0
2014-Jul-02 22:31N 35°22' E 139°52'0 0.0
2014-Jul-02 21:28N 35°22' E 139°52'0 0.0
2014-Jul-02 20:31N 35°22' E 139°52'0 0.0
2014-Jul-02 19:31N 35°22' E 139°52'0 0.0
2014-Jul-02 18:31N 35°22' E 139°52'0 0.0
2014-Jul-02 17:31N 35°22' E 139°52'0 0.0
2014-Jul-02 16:31N 35°22' E 139°52'0 0.0
2014-Jul-02 15:31N 35°22' E 139°52'0 0.0
2014-Jul-02 14:31N 35°22' E 139°52'0 0.0
2014-Jul-02 13:31N 35°22' E 139°52'0 0.0
2014-Jul-02 12:31N 35°22' E 139°52'0 0.0
2014-Jul-02 11:31N 35°22' E 139°52'0 0.0
2014-Jul-02 10:31N 35°22' E 139°52'0 0.0
2014-Jul-02 09:31N 35°22' E 139°52'0 0.0
2014-Jul-02 08:31N 35°22' E 139°52'0 0.0
2014-Jul-02 07:31N 35°22' E 139°52'0 0.0
2014-Jul-02 06:31N 35°22' E 139°52'0 0.0
2014-Jul-02 05:31N 35°22' E 139°52'0 0.0
2014-Jul-02 04:31N 35°22' E 139°52'0 0.0
2014-Jul-02 03:31N 35°22' E 139°52'0 0.0
2014-Jul-02 02:31N 35°22' E 139°52'0 0.0
2014-Jul-02 01:28N 35°22' E 139°52'0 0.0
2014-Jul-02 00:31N 35°22' E 139°52'0 0.0
2014-Jul-01 23:31N 35°22' E 139°52'0 0.0
2014-Jul-01 22:31N 35°22' E 139°52'0 0.0
2014-Jul-01 21:31N 35°22' E 139°52'0 0.0
2014-Jul-01 20:31N 35°22' E 139°52'0 0.0
2014-Jul-01 19:31N 35°22' E 139°52'0 0.0
2014-Jul-01 18:31N 35°22' E 139°52'0 0.0
2014-Jul-01 17:31N 35°22' E 139°52'0 0.0
2014-Jul-01 16:31N 35°22' E 139°52'0 0.0
2014-Jul-01 15:31N 35°22' E 139°52'0 0.0
2014-Jul-01 14:31N 35°22' E 139°52'0 0.0
2014-Jul-01 13:31N 35°22' E 139°52'0 0.0
2014-Jul-01 12:31N 35°22' E 139°52'0 0.0
2014-Jul-01 11:28N 35°22' E 139°52'0 0.0
2014-Jul-01 10:31N 35°22' E 139°52'0 0.0
2014-Jul-01 09:28N 35°22' E 139°52'0 0.1
2014-Jul-01 08:34N 35°22' E 139°52'4 3.9
2014-Jul-01 07:34N 35°24' E 139°48'1 1.3
2014-Jul-01 06:33N 35°26' E 139°49'0 0.2
2014-Jul-01 05:33N 35°25' E 139°49'0 0.1
2014-Jul-01 04:24N 35°25' E 139°49'1 1.4
2014-Jul-01 03:33N 35°25' E 139°47'7 7.3
2014-Jul-01 02:33N 35°18' E 139°45'10 9.6
2014-Jul-01 01:33N 35°09' E 139°46'1111.2
2014-Jul-01 00:33N 34°58' E 139°42'9 8.8
2014-Jun-30 23:33N 34°49' E 139°39'  

Dump ship's entire track history